Time,TemperatureF,DewpointF,PressureIn,WindDirection,WindDirectionDegrees,WindSpeedMPH,WindSpeedGustMPH,Humidity,HourlyPrecipIn,Conditions,Clouds,dailyrainin,SoftwareType,DateUTC
2013-08-22 00:12:00,68.5,64.1,29.86,SSE,157,0.0,-999.0,86,-99.99,,,0.00,Acu-Link.com,2013-08-22 04:12:00,
2013-08-22 06:35:00,68.7,63.7,29.87,NE,45,0.0,-999.0,84,-99.99,,,0.00,Acu-Link.com,2013-08-22 10:35:00,
2013-08-22 10:50:00,76.6,61.7,29.89,West,270,1.1,-999.0,60,-99.99,,,0.00,Acu-Link.com,2013-08-22 14:50:00,
2013-08-22 11:31:00,78.4,63.3,29.90,NE,45,1.7,-999.0,60,-99.99,,,0.00,Acu-Link.com,2013-08-22 15:31:00,
2013-08-22 11:47:00,78.3,62.8,29.91,North,0,1.7,-999.0,59,-99.99,,,0.00,Acu-Link.com,2013-08-22 15:47:00,
2013-08-22 12:02:00,78.3,62.3,29.90,NW,315,3.2,-999.0,58,-99.99,,,0.00,Acu-Link.com,2013-08-22 16:02:00,
2013-08-22 12:24:00,78.1,62.1,29.90,SW,225,2.7,-999.0,58,-99.99,,,0.00,Acu-Link.com,2013-08-22 16:24:00,
2013-08-22 12:42:00,78.1,63.1,29.89,West,270,2.2,-999.0,60,-99.99,,,0.00,Acu-Link.com,2013-08-22 16:42:00,
2013-08-22 12:58:00,78.6,63.1,29.89,NNW,337,4.2,-999.0,59,-99.99,,,0.00,Acu-Link.com,2013-08-22 16:58:00,
2013-08-22 13:13:00,79.0,62.9,29.90,WSW,247,1.7,-999.0,58,-99.99,,,0.00,Acu-Link.com,2013-08-22 17:13:00,
2013-08-22 13:58:00,79.7,63.1,29.89,NNW,337,2.2,-999.0,57,-99.99,,,0.00,Acu-Link.com,2013-08-22 17:58:00,
2013-08-22 14:13:00,79.9,63.8,29.88,West,270,0.0,-999.0,58,-99.99,,,0.00,Acu-Link.com,2013-08-22 18:13:00,
2013-08-22 14:28:00,81.3,64.1,29.89,East,90,2.7,-999.0,56,-99.99,,,0.00,Acu-Link.com,2013-08-22 18:28:00,
2013-08-22 14:44:00,80.1,63.5,29.88,WNW,292,1.7,-999.0,57,-99.99,,,0.00,Acu-Link.com,2013-08-22 18:44:00,
2013-08-22 15:00:00,80.6,63.9,29.88,NNW,337,1.1,-999.0,57,-99.99,,,0.00,Acu-Link.com,2013-08-22 19:00:00,
2013-08-22 15:18:00,82.2,63.9,29.88,NE,45,3.2,-999.0,54,-99.99,,,0.00,Acu-Link.com,2013-08-22 19:18:00,
2013-08-22 15:33:00,81.0,62.8,29.87,SW,225,2.2,-999.0,54,-99.99,,,0.00,Acu-Link.com,2013-08-22 19:33:00,
2013-08-22 15:50:00,80.2,62.5,29.87,West,270,1.1,-999.0,55,-99.99,,,0.00,Acu-Link.com,2013-08-22 19:50:00,
2013-08-22 16:05:00,80.8,62.6,29.86,West,270,1.7,-999.0,54,-99.99,,,0.00,Acu-Link.com,2013-08-22 20:05:00,
2013-08-22 16:22:00,81.1,63.4,29.86,WNW,292,1.7,-999.0,55,-99.99,,,0.00,Acu-Link.com,2013-08-22 20:22:00,
2013-08-22 16:50:00,81.3,63.0,29.87,WSW,247,2.2,-999.0,54,-99.99,,,0.00,Acu-Link.com,2013-08-22 20:50:00,
2013-08-22 17:05:00,81.9,63.6,29.87,NNW,337,1.1,-999.0,54,-99.99,,,0.00,Acu-Link.com,2013-08-22 21:05:00,
2013-08-22 17:22:00,81.5,63.7,29.87,NNE,22,2.2,-999.0,55,-99.99,,,0.00,Acu-Link.com,2013-08-22 21:22:00,
2013-08-22 17:37:00,80.6,63.9,29.87,WNW,292,0.0,-999.0,57,-99.99,,,0.00,Acu-Link.com,2013-08-22 21:37:00,
2013-08-22 17:53:00,80.4,64.2,29.86,WNW,292,2.2,-999.0,58,-99.99,,,0.00,Acu-Link.com,2013-08-22 21:53:00,
2013-08-22 18:55:00,80.6,64.4,29.87,WNW,292,0.0,-999.0,58,-99.99,,,0.00,Acu-Link.com,2013-08-22 22:55:00,
2013-08-22 19:12:00,76.6,64.4,29.86,WNW,292,0.0,-999.0,66,-99.99,,,0.00,Acu-Link.com,2013-08-22 23:12:00,
2013-08-22 19:28:00,76.1,64.3,29.87,ENE,67,0.0,-999.0,67,-99.99,,,0.00,Acu-Link.com,2013-08-22 23:28:00,
2013-08-22 19:43:00,75.2,64.3,29.87,WSW,247,0.0,-999.0,69,-99.99,,,0.00,Acu-Link.com,2013-08-22 23:43:00,
2013-08-22 19:58:00,74.7,64.2,29.86,WSW,247,0.0,-999.0,70,-99.99,,,0.00,Acu-Link.com,2013-08-22 23:58:00,
2013-08-22 20:14:00,73.9,64.3,29.87,WSW,247,0.0,-999.0,72,-99.99,,,0.00,Acu-Link.com,2013-08-23 00:14:00,
2013-08-22 20:30:00,73.0,64.2,29.87,West,270,0.0,-999.0,74,-99.99,,,0.00,Acu-Link.com,2013-08-23 00:30:00,
2013-08-22 20:58:00,72.7,63.9,29.88,West,270,0.0,-999.0,74,-99.99,,,0.00,Acu-Link.com,2013-08-23 00:58:00,
2013-08-22 21:17:00,72.7,63.9,29.88,West,270,0.0,-999.0,74,-99.99,,,0.00,Acu-Link.com,2013-08-23 01:17:00,
2013-08-22 21:32:00,69.3,63.6,29.88,West,270,0.0,-999.0,82,-99.99,,,0.00,Acu-Link.com,2013-08-23 01:32:00,
2013-08-22 21:47:00,68.2,62.5,29.89,West,270,0.0,-999.0,82,-99.99,,,0.00,Acu-Link.com,2013-08-23 01:47:00,
2013-08-22 22:03:00,67.5,62.1,29.89,South,180,0.0,-999.0,83,-99.99,,,0.00,Acu-Link.com,2013-08-23 02:03:00,
2013-08-22 22:18:00,66.9,62.6,29.89,South,180,0.0,-999.0,86,-99.99,,,0.00,Acu-Link.com,2013-08-23 02:18:00,
2013-08-22 22:33:00,66.6,61.9,29.89,West,270,0.0,-999.0,85,-99.99,,,0.00,Acu-Link.com,2013-08-23 02:33:00,
2013-08-22 22:49:00,67.8,64.4,29.89,ENE,67,0.0,-999.0,89,-99.99,,,0.00,Acu-Link.com,2013-08-23 02:49:00,
2013-08-22 23:04:00,68.4,65.0,29.89,North,0,0.0,-999.0,89,-99.99,,,0.00,Acu-Link.com,2013-08-23 03:04:00,
2013-08-22 23:19:00,68.7,65.3,29.89,NE,45,2.2,-999.0,89,-99.99,,,0.00,Acu-Link.com,2013-08-23 03:19:00,
2013-08-22 23:58:00,68.7,65.0,29.91,NNE,22,1.7,-999.0,88,-99.99,,,0.00,Acu-Link.com,2013-08-23 03:58:00,